Accueil
METAR-TAF:

METAR-TAF

Aéroports :

Mount Airy/Surry County Airport

Mount Airy, Caroline du Nord, États-Unis

latitude: 36-27-35N, longitude: 080-33-11W, altitude: 380 m

Observation

Le bulletin a été fait il y a 1 heure et 19 minutes, à 18:35 UTC
Vent 3 kt de ouest/nord-ouest
Température 27°C
Humidité 79%
Pression 1013 hPa
Visibilité: 16.1 km
Ciel clair

METAR: KMWK 101835Z AUTO 30003KT 10SM CLR 27/23 A2992 RMK AO2 T02700228

Heure: 15:54 (19:54 UTC)


TAF: absent

Observations et prévisions météorologiques de plus de 4000 aéroports (messages METAR et TAF).

Les stations disponibles sont représentées par des disques jaunes et rouges sur la carte.

Passer la souris dessus pour voir le nom de la station.

Cliquer dessus pour voir les observations et prévisions météorologiques.

Pour changer de carte: cliquez sur les boutons verts avec une croix noire pour zoomer, sur le bouton vert avec un tiret pour effectuer un zoom arrière, ou sur les flèches vertes pour les cartes adjacentes.


METAR-TAF: